createdAt,value
2018-12-17T00:00:35.152Z,14.00
2018-12-17T00:02:37.769Z,14.77
2018-12-17T00:04:40.331Z,13.37
2018-12-17T00:06:43.034Z,14.93
2018-12-17T00:08:45.878Z,12.80
2018-12-17T00:10:48.470Z,13.63
2018-12-17T00:12:51.156Z,13.40
2018-12-17T00:14:53.795Z,14.30
2018-12-17T00:16:56.373Z,14.77
2018-12-17T00:18:59.029Z,14.40
2018-12-17T00:21:01.662Z,14.17
2018-12-17T00:23:04.570Z,14.53
2018-12-17T00:25:07.194Z,14.40
2018-12-17T00:27:09.818Z,13.67
2018-12-17T00:29:13.398Z,13.83
2018-12-17T00:31:16.002Z,14.90
2018-12-17T00:33:18.687Z,14.67
2018-12-17T00:35:21.319Z,13.97
2018-12-17T00:37:24.675Z,14.53
2018-12-17T00:39:27.231Z,13.90
2018-12-17T00:41:29.789Z,13.77
2018-12-17T00:43:32.563Z,14.60
2018-12-17T00:45:35.288Z,12.67
2018-12-17T00:47:37.850Z,13.37
2018-12-17T00:49:40.390Z,13.67
2018-12-17T00:51:43.073Z,13.53
2018-12-17T00:53:45.622Z,14.10
2018-12-17T00:55:48.170Z,12.90
2018-12-17T00:57:50.740Z,13.23
2018-12-17T00:59:53.258Z,13.37
2018-12-17T01:01:57.037Z,12.87
2018-12-17T01:03:59.681Z,12.57
2018-12-17T01:06:02.330Z,12.97
2018-12-17T01:08:04.939Z,13.83
2018-12-17T01:10:07.674Z,12.77
2018-12-17T01:12:10.378Z,13.33
2018-12-17T01:14:12.969Z,12.77
2018-12-17T01:16:15.606Z,13.87
2018-12-17T01:18:18.209Z,12.80
2018-12-17T01:20:20.750Z,13.43
2018-12-17T01:22:23.303Z,12.40
2018-12-17T01:24:25.844Z,13.03
2018-12-17T01:26:28.625Z,12.83
2018-12-17T01:28:31.215Z,12.07
2018-12-17T01:30:33.903Z,11.23
2018-12-17T01:32:36.626Z,13.83
2018-12-17T01:34:39.234Z,13.17
2018-12-17T01:36:41.833Z,14.00
2018-12-17T01:38:45.027Z,12.97
2018-12-17T01:40:47.752Z,13.10
2018-12-17T01:42:50.298Z,13.37
2018-12-17T01:44:52.871Z,13.87
2018-12-17T01:46:55.534Z,14.37
2018-12-17T01:48:58.065Z,14.00
2018-12-17T01:51:00.685Z,13.77
2018-12-17T01:53:03.213Z,14.00
2018-12-17T01:55:05.834Z,15.40
2018-12-17T01:57:08.517Z,15.93
2018-12-17T01:59:11.224Z,16.83
2018-12-17T02:01:13.825Z,14.30
2018-12-17T02:03:16.405Z,15.30
2018-12-17T02:05:19.049Z,15.07
2018-12-17T02:07:21.604Z,15.23
2018-12-17T02:09:24.169Z,15.33
2018-12-17T02:11:26.748Z,15.27
2018-12-17T02:13:29.347Z,15.13
2018-12-17T02:15:31.995Z,14.67
2018-12-17T02:17:34.835Z,16.70
2018-12-17T02:19:37.365Z,15.60
2018-12-17T02:21:39.873Z,14.63
2018-12-17T02:23:42.441Z,15.50
2018-12-17T02:25:44.993Z,17.43
2018-12-17T02:27:47.623Z,16.73
2018-12-17T02:29:50.717Z,15.67
2018-12-17T02:31:53.336Z,15.23
2018-12-17T02:33:56.136Z,14.70
2018-12-17T02:35:58.696Z,15.37
2018-12-17T02:38:01.306Z,15.47
2018-12-17T02:40:05.037Z,13.97
2018-12-17T02:42:07.734Z,13.80
2018-12-17T02:44:10.905Z,13.70
2018-12-17T02:46:13.442Z,14.80
2018-12-17T02:48:16.028Z,13.53
2018-12-17T02:50:18.576Z,14.63
2018-12-17T02:52:21.134Z,14.57
2018-12-17T02:54:23.678Z,14.50
2018-12-17T02:56:26.233Z,14.37
2018-12-17T02:58:28.967Z,14.33
2018-12-17T03:00:31.647Z,14.53
2018-12-17T03:02:34.190Z,14.67
2018-12-17T03:04:36.717Z,14.73
2018-12-17T03:06:39.240Z,14.37
2018-12-17T03:08:41.991Z,15.23
2018-12-17T03:10:44.544Z,14.63
2018-12-17T03:12:47.127Z,15.27
2018-12-17T03:14:49.690Z,14.60
2018-12-17T03:16:52.517Z,14.00
2018-12-17T03:18:55.125Z,14.60
2018-12-17T03:20:57.694Z,14.47
2018-12-17T03:23:00.320Z,13.73
2018-12-17T03:27:11.793Z,14.57
2018-12-17T03:29:14.324Z,14.67
2018-12-17T03:31:17.075Z,14.20
2018-12-17T03:33:19.713Z,13.50
2018-12-17T03:35:22.334Z,14.47
2018-12-17T03:37:24.941Z,14.97
2018-12-17T03:39:27.542Z,13.23
2018-12-17T03:41:30.244Z,13.43
2018-12-17T03:43:32.833Z,13.13
2018-12-17T03:45:35.371Z,13.60
2018-12-17T03:47:37.910Z,13.40
2018-12-17T03:49:40.461Z,12.23
2018-12-17T03:51:43.029Z,13.33
2018-12-17T03:53:45.585Z,14.87
2018-12-17T03:55:48.293Z,14.13
2018-12-17T03:57:51.055Z,15.17
2018-12-17T03:59:53.716Z,14.87
2018-12-17T04:01:56.922Z,15.20
2018-12-17T04:03:59.480Z,15.33
2018-12-17T04:06:02.016Z,15.40
2018-12-17T04:08:04.630Z,14.67
2018-12-17T04:10:07.238Z,14.93
2018-12-17T04:12:09.802Z,14.63
2018-12-17T04:14:12.366Z,14.27
2018-12-17T04:16:15.003Z,13.37
2018-12-17T04:18:17.607Z,13.33
2018-12-17T04:20:20.138Z,12.67
2018-12-17T04:22:22.842Z,13.63
2018-12-17T04:24:25.736Z,12.00
2018-12-17T04:26:28.272Z,12.80
2018-12-17T04:28:30.801Z,12.97
2018-12-17T04:30:33.328Z,13.33
2018-12-17T04:32:35.867Z,14.70
2018-12-17T04:34:38.447Z,13.77
2018-12-17T04:36:40.980Z,13.30
2018-12-17T04:38:43.513Z,13.60
2018-12-17T04:40:46.090Z,13.27
2018-12-17T04:42:48.692Z,13.70
2018-12-17T04:44:51.240Z,13.33
2018-12-17T04:46:53.841Z,12.27
2018-12-17T04:48:56.398Z,12.30
2018-12-17T04:50:58.916Z,12.10
2018-12-17T04:53:01.642Z,12.53
2018-12-17T04:55:04.405Z,13.00
2018-12-17T04:57:06.954Z,11.97
2018-12-17T04:59:14.512Z,12.23
2018-12-17T05:01:14.223Z,14.00
2018-12-17T05:03:16.944Z,13.60
2018-12-17T05:05:19.514Z,12.90
2018-12-17T05:07:22.026Z,13.33
2018-12-17T05:09:24.578Z,12.67
2018-12-17T05:11:27.103Z,13.23
2018-12-17T05:13:29.651Z,14.43
2018-12-17T05:15:32.317Z,14.00
2018-12-17T05:17:35.029Z,12.83
2018-12-17T05:19:37.707Z,11.97
2018-12-17T05:23:49.191Z,12.43
2018-12-17T05:25:51.898Z,12.63
2018-12-17T05:27:54.420Z,12.53
2018-12-17T05:29:57.286Z,11.20
2018-12-17T05:31:59.804Z,10.63
2018-12-17T05:34:02.682Z,13.53
2018-12-17T05:36:05.472Z,13.67
2018-12-17T05:38:08.144Z,13.43
2018-12-17T05:40:10.709Z,12.37
2018-12-17T05:42:13.305Z,13.57
2018-12-17T05:44:15.849Z,12.83
2018-12-17T05:46:18.449Z,12.80
2018-12-17T05:48:20.965Z,13.33
2018-12-17T05:50:23.558Z,13.53
2018-12-17T05:52:26.111Z,13.00
2018-12-17T05:54:28.733Z,12.50
2018-12-17T05:56:31.567Z,12.17
2018-12-17T05:58:34.087Z,11.27
2018-12-17T06:00:36.679Z,12.83
2018-12-17T06:02:39.190Z,12.53
2018-12-17T06:04:41.817Z,12.50
2018-12-17T06:06:44.403Z,11.00
2018-12-17T06:08:47.162Z,11.73
2018-12-17T06:10:49.838Z,12.17
2018-12-17T06:12:52.421Z,12.10
2018-12-17T06:14:55.027Z,11.60
2018-12-17T06:16:57.566Z,13.10
2018-12-17T06:19:00.099Z,11.27
2018-12-17T06:21:02.649Z,11.40
2018-12-17T06:23:05.245Z,11.53
2018-12-17T06:25:07.829Z,14.33
2018-12-17T06:27:10.527Z,12.87
2018-12-17T06:29:13.195Z,12.97
2018-12-17T06:31:15.834Z,12.03
2018-12-17T06:33:18.595Z,11.93
2018-12-17T06:35:21.210Z,13.20
2018-12-17T06:37:23.877Z,12.83
2018-12-17T06:39:26.635Z,12.20
2018-12-17T06:41:29.212Z,12.13
2018-12-17T06:43:31.734Z,12.33
2018-12-17T06:45:34.326Z,11.83
2018-12-17T06:47:36.874Z,12.10
2018-12-17T06:49:39.436Z,11.53
2018-12-17T06:51:42.390Z,12.27
2018-12-17T06:53:44.946Z,9.63
2018-12-17T06:55:47.474Z,10.97
2018-12-17T06:57:50.245Z,10.73
2018-12-17T06:59:52.861Z,9.90
2018-12-17T07:01:55.482Z,11.40
2018-12-17T07:03:58.101Z,11.43
2018-12-17T07:06:00.665Z,10.23
2018-12-17T07:08:03.273Z,9.93
2018-12-17T07:10:05.950Z,10.47
2018-12-17T07:12:08.625Z,10.67
2018-12-17T07:14:11.149Z,10.00
2018-12-17T07:16:13.846Z,9.57
2018-12-17T07:18:16.373Z,11.30
2018-12-17T07:20:18.936Z,11.60
2018-12-17T07:22:21.573Z,11.33
2018-12-17T07:24:24.230Z,12.30
2018-12-17T07:26:26.759Z,12.90
2018-12-17T07:28:29.341Z,11.37
2018-12-17T07:30:31.853Z,13.00
2018-12-17T07:32:34.461Z,16.70
2018-12-17T07:34:37.500Z,13.53
2018-12-17T07:36:40.247Z,13.47
2018-12-17T07:38:42.874Z,21.73
2018-12-17T07:40:45.394Z,14.63
2018-12-17T07:42:48.089Z,14.07
2018-12-17T07:44:50.705Z,13.93
2018-12-17T07:46:53.454Z,14.33
2018-12-17T07:48:55.997Z,13.97
2018-12-17T07:50:58.681Z,13.97
2018-12-17T07:53:01.246Z,15.10
2018-12-17T07:55:04.489Z,14.50
2018-12-17T07:57:07.074Z,15.07
2018-12-17T07:59:09.617Z,15.33
2018-12-17T08:01:12.264Z,15.47
2018-12-17T08:03:14.831Z,15.63
2018-12-17T08:05:17.422Z,19.27
2018-12-17T08:07:19.946Z,16.10
2018-12-17T08:09:22.474Z,15.90
2018-12-17T08:11:25.142Z,16.03
2018-12-17T08:13:27.922Z,14.77
2018-12-17T08:15:30.468Z,15.40
2018-12-17T08:17:34.114Z,15.83
2018-12-17T08:19:36.725Z,15.07
2018-12-17T08:21:39.358Z,14.40
2018-12-17T08:23:41.995Z,13.13
2018-12-17T08:25:44.652Z,16.93
2018-12-17T08:27:47.985Z,16.43
2018-12-17T08:29:50.550Z,14.37
2018-12-17T08:31:53.143Z,15.30
2018-12-17T08:33:55.661Z,16.53
2018-12-17T08:35:58.466Z,15.97
2018-12-17T08:38:00.998Z,14.40
2018-12-17T08:40:04.024Z,15.00
2018-12-17T08:42:06.793Z,17.00
2018-12-17T08:44:09.579Z,15.57
2018-12-17T08:46:12.761Z,15.17
2018-12-17T08:48:15.285Z,15.67
2018-12-17T08:50:17.869Z,15.90
2018-12-17T08:52:20.541Z,15.37
2018-12-17T08:54:23.143Z,20.57
2018-12-17T08:56:25.897Z,16.13
2018-12-17T08:58:28.618Z,19.73
2018-12-17T09:00:31.255Z,15.83
2018-12-17T09:02:33.825Z,15.90
2018-12-17T09:04:36.435Z,17.97
2018-12-17T09:06:39.213Z,19.30
2018-12-17T09:08:41.783Z,14.10
2018-12-17T09:10:44.500Z,13.60
2018-12-17T09:12:47.118Z,14.03
2018-12-17T09:14:49.665Z,13.40
2018-12-17T09:16:52.273Z,13.40
2018-12-17T09:18:54.928Z,14.43
2018-12-17T09:20:57.545Z,13.97
2018-12-17T09:23:00.168Z,13.80
2018-12-17T09:25:03.249Z,13.87
2018-12-17T09:27:05.814Z,14.30
2018-12-17T09:29:08.652Z,14.07
2018-12-17T09:31:11.167Z,13.17
2018-12-17T09:33:13.797Z,12.63
2018-12-17T09:35:16.306Z,13.40
2018-12-17T09:37:18.953Z,13.47
2018-12-17T09:39:21.548Z,13.23
2018-12-17T09:41:24.094Z,13.63
2018-12-17T09:43:26.841Z,11.97
2018-12-17T09:45:29.974Z,12.67
2018-12-17T09:47:32.511Z,12.70
2018-12-17T09:49:35.062Z,13.23
2018-12-17T09:51:37.622Z,13.97
2018-12-17T09:53:40.262Z,13.47
2018-12-17T09:55:42.797Z,13.83
2018-12-17T09:57:45.475Z,13.17
2018-12-17T09:59:48.157Z,13.97
2018-12-17T10:01:50.697Z,14.10
2018-12-17T10:03:53.312Z,14.67
2018-12-17T10:05:55.858Z,12.27
2018-12-17T10:07:58.441Z,13.40
2018-12-17T10:10:01.063Z,13.57
2018-12-17T10:12:03.793Z,12.53
2018-12-17T10:14:06.345Z,12.07
2018-12-17T10:16:08.973Z,12.93
2018-12-17T10:18:11.705Z,13.33
2018-12-17T10:20:14.250Z,13.00
2018-12-17T10:22:16.880Z,13.63
2018-12-17T10:24:19.486Z,14.67
2018-12-17T10:26:22.378Z,15.50
2018-12-17T10:28:24.882Z,14.40
2018-12-17T10:30:32.442Z,16.63
2018-12-17T10:32:31.973Z,13.57
2018-12-17T10:34:34.688Z,13.90
2018-12-17T10:36:37.382Z,15.20
2018-12-17T10:38:39.949Z,14.17
2018-12-17T10:40:42.605Z,14.13
2018-12-17T10:42:45.306Z,14.27
2018-12-17T10:44:47.990Z,14.67
2018-12-17T10:46:50.714Z,13.50
2018-12-17T10:48:53.249Z,15.63
2018-12-17T10:50:55.797Z,16.63
2018-12-17T10:52:58.330Z,15.37
2018-12-17T10:55:00.866Z,15.43
2018-12-17T10:57:03.590Z,14.03
2018-12-17T10:59:06.129Z,13.60
2018-12-17T11:01:14.419Z,13.47
2018-12-17T11:03:26.068Z,14.50
2018-12-17T11:05:29.070Z,15.07
2018-12-17T11:07:31.599Z,15.23
2018-12-17T11:09:34.158Z,15.93
2018-12-17T11:11:36.781Z,14.27
2018-12-17T11:13:39.296Z,14.20
2018-12-17T11:15:41.958Z,13.23
2018-12-17T11:17:44.782Z,15.57
2018-12-17T11:19:47.682Z,15.17
2018-12-17T11:21:50.328Z,14.70
2018-12-17T11:23:52.846Z,17.83
2018-12-17T11:25:55.453Z,24.33
2018-12-17T11:27:57.983Z,15.53
2018-12-17T11:30:00.630Z,13.93
2018-12-17T11:32:03.369Z,14.43
2018-12-17T11:34:05.883Z,14.87
2018-12-17T11:36:08.573Z,15.30
2018-12-17T11:38:11.138Z,15.67
2018-12-17T11:40:13.669Z,15.83
2018-12-17T11:42:16.600Z,15.10
2018-12-17T11:44:19.110Z,13.97
2018-12-17T11:46:21.734Z,13.67
2018-12-17T11:48:24.585Z,17.20
2018-12-17T11:50:27.325Z,16.27
2018-12-17T11:52:29.975Z,15.13
2018-12-17T11:54:32.676Z,14.17
2018-12-17T11:56:40.130Z,13.83
2018-12-17T11:58:42.665Z,14.10
2018-12-17T12:00:53.505Z,14.13
2018-12-17T12:02:51.541Z,13.23
2018-12-17T12:04:54.068Z,14.57
2018-12-17T12:06:56.646Z,13.67
2018-12-17T12:08:59.213Z,13.90
2018-12-17T12:11:01.758Z,13.80
2018-12-17T12:13:04.446Z,13.97
2018-12-17T12:15:07.101Z,14.57
2018-12-17T12:17:09.753Z,14.20
2018-12-17T12:19:12.285Z,13.17
2018-12-17T12:21:14.937Z,13.50
2018-12-17T12:23:17.461Z,13.83
2018-12-17T12:25:20.088Z,12.70
2018-12-17T12:27:22.831Z,13.77
2018-12-17T12:29:25.462Z,13.73
2018-12-17T12:31:28.044Z,12.93
2018-12-17T12:33:30.748Z,12.27
2018-12-17T12:35:33.321Z,11.60
2018-12-17T12:37:35.854Z,11.43
2018-12-17T12:39:38.475Z,11.77
2018-12-17T12:41:40.995Z,11.03
2018-12-17T12:43:43.521Z,11.40
2018-12-17T12:45:46.123Z,11.23
2018-12-17T12:47:48.769Z,12.33
2018-12-17T12:49:51.527Z,11.03
2018-12-17T12:51:54.145Z,11.40
2018-12-17T12:53:56.837Z,11.57
2018-12-17T12:55:59.464Z,11.10
2018-12-17T12:58:03.777Z,11.80
2018-12-17T13:00:08.153Z,12.77
2018-12-17T13:02:10.818Z,11.97
2018-12-17T13:04:13.480Z,11.70
2018-12-17T13:06:16.035Z,11.53
2018-12-17T13:08:18.731Z,11.90
2018-12-17T13:10:21.255Z,12.83
2018-12-17T13:12:23.919Z,11.47
2018-12-17T13:14:26.502Z,14.57
2018-12-17T13:16:29.075Z,12.37
2018-12-17T13:18:31.610Z,13.47
2018-12-17T13:20:34.126Z,12.10
2018-12-17T13:22:36.770Z,11.50
2018-12-17T13:24:39.433Z,11.17
2018-12-17T13:26:42.066Z,14.43
2018-12-17T13:28:44.651Z,11.33
2018-12-17T13:30:47.157Z,11.73
2018-12-17T13:32:49.762Z,13.30
2018-12-17T13:34:52.278Z,13.93
2018-12-17T13:36:54.864Z,14.00
2018-12-17T13:38:57.397Z,14.30
2018-12-17T13:41:00.049Z,12.80
2018-12-17T13:43:02.726Z,12.07
2018-12-17T13:45:05.842Z,13.60
2018-12-17T13:47:08.366Z,12.73
2018-12-17T13:49:11.039Z,13.13
2018-12-17T13:51:32.673Z,12.27
2018-12-17T13:53:35.230Z,12.27
2018-12-17T13:55:37.789Z,14.40
2018-12-17T13:57:40.355Z,14.93
2018-12-17T13:59:43.159Z,13.33
2018-12-17T14:01:51.440Z,13.93
2018-12-17T14:03:50.349Z,15.10
2018-12-17T14:05:52.873Z,12.50
2018-12-17T14:07:55.477Z,11.67
2018-12-17T14:10:03.835Z,12.00
2018-12-17T14:12:06.445Z,11.30
2018-12-17T14:14:09.028Z,11.90
2018-12-17T14:16:14.740Z,10.77
2018-12-17T14:18:23.347Z,11.43
2018-12-17T14:20:31.761Z,11.80
2018-12-17T14:22:34.274Z,11.70
2018-12-17T14:24:36.987Z,12.13
2018-12-17T14:26:39.518Z,12.77
2018-12-17T14:28:42.073Z,11.93
2018-12-17T14:30:44.634Z,12.47
2018-12-17T14:32:47.240Z,13.10
2018-12-17T14:34:49.974Z,13.37
2018-12-17T14:36:52.609Z,13.90
2018-12-17T14:38:55.246Z,13.53
2018-12-17T14:40:58.066Z,13.63
2018-12-17T14:43:00.708Z,14.00
2018-12-17T14:45:04.304Z,13.67
2018-12-17T14:47:06.885Z,13.77
2018-12-17T14:49:09.419Z,14.27
2018-12-17T14:51:11.987Z,14.10
2018-12-17T14:53:14.545Z,14.23
2018-12-17T14:55:17.865Z,15.70
2018-12-17T14:57:20.403Z,17.80
2018-12-17T14:59:22.957Z,20.00
2018-12-17T15:01:25.622Z,18.07
2018-12-17T15:03:28.246Z,18.07
2018-12-17T15:05:30.863Z,16.23
2018-12-17T15:07:33.479Z,16.87
2018-12-17T15:09:36.017Z,15.47
2018-12-17T15:11:38.764Z,17.43
2018-12-17T15:13:41.466Z,18.40
2018-12-17T15:15:44.193Z,17.40
2018-12-17T15:17:46.965Z,16.27
2018-12-17T15:19:49.510Z,17.70
2018-12-17T15:21:52.129Z,18.60
2018-12-17T15:23:54.797Z,18.87
2018-12-17T15:25:57.327Z,19.87
2018-12-17T15:27:59.909Z,17.43
2018-12-17T15:30:02.457Z,16.53
2018-12-17T15:32:05.157Z,16.93
2018-12-17T15:34:07.758Z,16.93
2018-12-17T15:36:10.482Z,17.37
2018-12-17T15:38:13.171Z,17.70
2018-12-17T15:40:15.681Z,18.90
2018-12-17T15:42:18.333Z,19.33
2018-12-17T15:44:20.848Z,17.97
2018-12-17T15:46:23.438Z,17.97
2018-12-17T15:48:25.998Z,17.40
2018-12-17T15:50:28.514Z,17.03
2018-12-17T15:52:31.113Z,17.17
2018-12-17T15:54:33.913Z,18.83
2018-12-17T15:56:36.628Z,19.03
2018-12-17T15:58:39.198Z,18.33
2018-12-17T16:00:41.774Z,19.63
2018-12-17T16:02:44.399Z,18.87
2018-12-17T16:04:47.199Z,18.73
2018-12-17T16:06:49.729Z,17.30
2018-12-17T16:08:52.273Z,18.53
2018-12-17T16:10:54.836Z,18.57
2018-12-17T16:12:57.374Z,17.87
2018-12-17T16:15:00.163Z,16.63
2018-12-17T16:17:02.705Z,18.10
2018-12-17T16:19:05.408Z,18.47
2018-12-17T16:21:08.070Z,18.93
2018-12-17T16:23:10.713Z,19.17
2018-12-17T16:25:13.525Z,18.00
2018-12-17T16:27:19.357Z,17.90
2018-12-17T16:29:20.769Z,18.13
2018-12-17T16:31:23.403Z,17.07
2018-12-17T16:33:29.915Z,18.73
2018-12-17T16:35:30.498Z,17.63
2018-12-17T16:37:33.025Z,22.33
2018-12-17T16:39:35.658Z,27.03
2018-12-17T16:41:38.241Z,25.90
2018-12-17T16:43:40.766Z,23.77
2018-12-17T16:45:43.435Z,22.50
2018-12-17T16:47:45.971Z,19.13
2018-12-17T16:49:48.979Z,19.03
2018-12-17T16:51:51.632Z,17.27
2018-12-17T16:53:54.278Z,17.47
2018-12-17T16:55:56.889Z,18.20
2018-12-17T16:57:59.516Z,19.17
2018-12-17T17:00:02.162Z,18.47
2018-12-17T17:02:04.894Z,23.30
2018-12-17T17:04:07.453Z,22.70
2018-12-17T17:06:10.179Z,20.73
2018-12-17T17:08:12.755Z,20.33
2018-12-17T17:10:15.392Z,19.37
2018-12-17T17:12:17.955Z,19.17
2018-12-17T17:14:20.495Z,18.83
2018-12-17T17:16:23.065Z,19.40
2018-12-17T17:18:25.693Z,20.60
2018-12-17T17:20:28.310Z,18.97
2018-12-17T17:22:30.849Z,18.47
2018-12-17T17:24:33.392Z,18.37
2018-12-17T17:26:36.207Z,18.10
2018-12-17T17:28:38.933Z,17.27
2018-12-17T17:30:41.541Z,18.13
2018-12-17T17:32:44.102Z,19.83
2018-12-17T17:34:46.654Z,18.63
2018-12-17T17:36:49.163Z,20.63
2018-12-17T17:38:51.825Z,19.30
2018-12-17T17:40:54.368Z,19.53
2018-12-17T17:42:57.041Z,19.77
2018-12-17T17:44:59.556Z,21.90
2018-12-17T17:47:02.174Z,21.83
2018-12-17T17:49:04.727Z,26.17
2018-12-17T17:51:07.332Z,27.80
2018-12-17T17:53:09.968Z,31.90
2018-12-17T17:55:12.510Z,29.67
2018-12-17T17:57:15.036Z,28.00
2018-12-17T17:59:17.574Z,24.87
2018-12-17T18:01:20.155Z,26.60
2018-12-17T18:03:22.722Z,24.50
2018-12-17T18:05:25.409Z,25.17
2018-12-17T18:07:28.073Z,25.83
2018-12-17T18:09:30.703Z,23.20
2018-12-17T18:11:33.401Z,21.80
2018-12-17T18:13:36.103Z,19.97
2018-12-17T18:15:40.981Z,20.70
2018-12-17T18:17:43.327Z,23.43
2018-12-17T18:19:45.957Z,20.77
2018-12-17T18:21:48.594Z,21.37
2018-12-17T18:23:51.137Z,21.63
2018-12-17T18:25:53.739Z,21.33
2018-12-17T18:27:56.382Z,22.10
2018-12-17T18:29:58.981Z,22.07
2018-12-17T18:32:01.536Z,20.10
2018-12-17T18:34:04.402Z,18.40
2018-12-17T18:36:07.021Z,19.97
2018-12-17T18:38:09.682Z,23.67
2018-12-17T18:40:12.439Z,27.30
2018-12-17T18:42:15.056Z,27.20
2018-12-17T18:44:17.713Z,25.83
2018-12-17T18:46:20.276Z,23.93
2018-12-17T18:50:31.635Z,20.73
2018-12-17T18:52:34.226Z,19.10
2018-12-17T18:54:36.802Z,20.30
2018-12-17T18:56:39.463Z,20.10
2018-12-17T18:58:42.017Z,20.83
2018-12-17T19:00:44.562Z,20.97
2018-12-17T19:02:47.097Z,20.70
2018-12-17T19:04:49.620Z,21.27
2018-12-17T19:06:52.298Z,21.03
2018-12-17T19:08:55.032Z,22.57
2018-12-17T19:10:57.561Z,21.30
2018-12-17T19:13:00.139Z,22.30
2018-12-17T19:15:02.787Z,26.87
2018-12-17T19:17:05.313Z,35.37
2018-12-17T19:19:07.957Z,31.37
2018-12-17T19:21:10.523Z,29.87
2018-12-17T19:23:13.150Z,34.97
2018-12-17T19:25:15.723Z,34.50
2018-12-17T19:27:18.391Z,32.27
2018-12-17T19:29:21.011Z,29.33
2018-12-17T19:31:23.823Z,25.70
2018-12-17T19:33:26.502Z,25.43
2018-12-17T19:35:29.236Z,21.57
2018-12-17T19:37:31.864Z,21.47
2018-12-17T19:39:34.492Z,22.67
2018-12-17T19:41:37.005Z,22.30
2018-12-17T19:43:39.619Z,22.33
2018-12-17T19:45:42.189Z,22.67
2018-12-17T19:47:44.819Z,24.37
2018-12-17T19:49:47.471Z,26.30
2018-12-17T19:51:49.994Z,24.37
2018-12-17T19:53:52.615Z,21.50
2018-12-17T19:55:55.292Z,21.37
2018-12-17T19:57:57.988Z,20.67
2018-12-17T20:00:00.533Z,20.77
2018-12-17T20:02:03.173Z,16.83
2018-12-17T20:04:05.743Z,15.00
2018-12-17T20:06:08.343Z,14.53
2018-12-17T20:08:10.996Z,13.87
2018-12-17T20:10:15.694Z,13.63
2018-12-17T20:12:18.214Z,13.23
2018-12-17T20:14:20.779Z,14.30
2018-12-17T20:16:23.445Z,14.23
2018-12-17T20:18:26.230Z,14.20
2018-12-17T20:20:28.870Z,19.70
2018-12-17T20:22:31.439Z,17.57
2018-12-17T20:24:34.127Z,18.23
2018-12-17T20:26:36.659Z,16.60
2018-12-17T20:28:39.175Z,14.97
2018-12-17T20:30:41.783Z,14.37
2018-12-17T20:32:44.306Z,18.07
2018-12-17T20:34:46.864Z,16.43
2018-12-17T20:36:49.486Z,17.90
2018-12-17T20:38:52.178Z,20.87
2018-12-17T20:40:54.750Z,22.40
2018-12-17T20:42:57.518Z,24.43
2018-12-17T20:45:00.235Z,21.37
2018-12-17T20:47:02.946Z,25.93
2018-12-17T20:49:05.652Z,22.20
2018-12-17T20:51:08.298Z,23.60
2018-12-17T20:53:10.821Z,17.60
2018-12-17T20:55:13.580Z,18.73
2018-12-17T20:57:16.156Z,17.97
2018-12-17T20:59:18.779Z,15.40
2018-12-17T21:01:21.695Z,13.37
2018-12-17T21:03:24.357Z,11.87
2018-12-17T21:05:26.919Z,12.77
2018-12-17T21:07:29.615Z,17.60
2018-12-17T21:09:32.178Z,11.77
2018-12-17T21:11:34.749Z,12.17
2018-12-17T21:13:37.323Z,13.13
2018-12-17T21:15:39.882Z,16.90
2018-12-17T21:17:42.520Z,15.27
2018-12-17T21:19:45.174Z,17.10
2018-12-17T21:21:47.915Z,16.80
2018-12-17T21:23:50.570Z,15.80
2018-12-17T21:25:53.186Z,15.53
2018-12-17T21:27:55.827Z,17.27
2018-12-17T21:29:58.492Z,17.37
2018-12-17T21:32:01.042Z,17.10
2018-12-17T21:34:03.728Z,19.97
2018-12-17T21:36:06.403Z,27.97
2018-12-17T21:38:09.137Z,36.07
2018-12-17T21:40:11.846Z,29.00
2018-12-17T21:42:14.479Z,30.47
2018-12-17T21:44:17.155Z,30.37
2018-12-17T21:46:19.796Z,33.60
2018-12-17T21:48:22.306Z,35.43
2018-12-17T21:50:24.844Z,32.40
2018-12-17T21:52:27.401Z,34.17
2018-12-17T21:54:30.048Z,30.93
2018-12-17T21:56:32.716Z,26.63
2018-12-17T21:58:35.283Z,24.17
2018-12-17T22:00:37.814Z,21.97
2018-12-17T22:02:40.362Z,23.87
2018-12-17T22:04:42.886Z,21.80
2018-12-17T22:06:45.501Z,20.90
2018-12-17T22:08:48.107Z,20.60
2018-12-17T22:10:50.751Z,21.60
2018-12-17T22:12:53.522Z,21.90
2018-12-17T22:14:56.191Z,19.33
2018-12-17T22:16:58.825Z,20.27
2018-12-17T22:19:01.405Z,20.17
2018-12-17T22:21:04.178Z,18.57
2018-12-17T22:23:06.809Z,18.47
2018-12-17T22:25:09.539Z,18.70
2018-12-17T22:27:12.246Z,17.53
2018-12-17T22:29:14.846Z,15.20
2018-12-17T22:31:17.531Z,14.93
2018-12-17T22:33:20.308Z,13.33
2018-12-17T22:35:22.880Z,12.90
2018-12-17T22:37:25.432Z,13.13
2018-12-17T22:39:28.119Z,13.07
2018-12-17T22:41:30.628Z,14.13
2018-12-17T22:43:33.194Z,13.23
2018-12-17T22:45:36.303Z,12.70
2018-12-17T22:47:38.908Z,13.20
2018-12-17T22:49:41.496Z,12.80
2018-12-17T22:51:44.305Z,12.60
2018-12-17T22:53:46.953Z,14.90
2018-12-17T22:55:49.614Z,16.00
2018-12-17T22:57:52.206Z,18.67
2018-12-17T22:59:54.774Z,23.70
2018-12-17T23:01:57.476Z,19.80
2018-12-17T23:04:00.133Z,18.13
2018-12-17T23:06:02.690Z,16.20
2018-12-17T23:08:05.303Z,18.20
2018-12-17T23:10:19.681Z,17.33
2018-12-17T23:12:33.984Z,39.03
2018-12-17T23:14:48.385Z,20.40
2018-12-17T23:17:02.642Z,17.63
2018-12-17T23:19:04.792Z,14.80
2018-12-17T23:21:07.425Z,15.20
2018-12-17T23:23:10.669Z,15.50
2018-12-17T23:25:13.199Z,15.43
2018-12-17T23:27:15.838Z,16.53
2018-12-17T23:29:18.660Z,15.97
2018-12-17T23:31:21.254Z,16.17
2018-12-17T23:33:23.904Z,15.77
2018-12-17T23:35:26.592Z,15.23
2018-12-17T23:37:29.122Z,15.80
2018-12-17T23:39:31.866Z,16.27
2018-12-17T23:41:34.385Z,15.33
2018-12-17T23:43:37.118Z,14.47
2018-12-17T23:45:39.628Z,16.73
2018-12-17T23:47:42.157Z,14.83
2018-12-17T23:49:44.818Z,15.80
2018-12-17T23:51:47.692Z,14.37
2018-12-17T23:53:50.222Z,16.33
2018-12-17T23:55:52.798Z,15.60
2018-12-17T23:57:55.433Z,15.10
2018-12-17T23:59:58.054Z,15.93
